Time;durP1;ratioP1;P1;durP2;ratioP2;P2;SDS_P1;SDS_P2;PMS_P1;PMS_P2;Temp;Humidity;BMP_temperature;BMP_pressure;BME280_temperature;BME280_humidity;BME280_pressure;Samples;Min_cycle;Max_cycle;Signal;HPM_P1;HPM_P2
2023/05/31 00:00:55;;;;;;;6.80;5.47;;;13.10;99.90;;;;;;4893621;29;20289;-87
2023/05/31 00:03:21;;;;;;;7.38;6.55;;;13.20;99.90;;;;;;4904903;29;20213;-86
2023/05/31 00:05:48;;;;;;;12.80;6.40;;;13.30;99.90;;;;;;4898104;29;20213;-85
2023/05/31 00:08:16;;;;;;;9.75;5.70;;;13.30;99.90;;;;;;4897574;29;20217;-86
2023/05/31 00:10:43;;;;;;;5.95;5.35;;;13.20;99.90;;;;;;4906607;29;20489;-84
2023/05/31 00:13:10;;;;;;;13.80;6.53;;;13.30;99.90;;;;;;4904275;29;20213;-85
2023/05/31 00:15:37;;;;;;;9.63;5.65;;;13.20;99.90;;;;;;4898120;29;20201;-84
2023/05/31 00:18:04;;;;;;;12.35;5.82;;;13.20;99.90;;;;;;4894911;29;20233;-85
2023/05/31 00:20:31;;;;;;;8.88;5.38;;;13.10;99.90;;;;;;4904244;29;20395;-85
2023/05/31 00:22:58;;;;;;;7.15;4.50;;;13.00;99.90;;;;;;4896837;29;20217;-84
2023/05/31 00:25:25;;;;;;;7.13;4.28;;;12.90;99.90;;;;;;4896624;29;20558;-86
2023/05/31 00:27:52;;;;;;;7.75;6.30;;;12.90;99.90;;;;;;4895128;29;20509;-87
2023/05/31 00:30:19;;;;;;;13.18;6.50;;;13.00;99.90;;;;;;4901873;29;20272;-86
2023/05/31 00:32:46;;;;;;;12.52;5.80;;;12.80;99.90;;;;;;4899967;29;20205;-86
2023/05/31 00:35:13;;;;;;;8.98;6.40;;;12.80;99.90;;;;;;4905127;29;20217;-87
2023/05/31 00:37:40;;;;;;;11.57;6.35;;;12.70;99.90;;;;;;4896571;29;20221;-85
2023/05/31 00:40:08;;;;;;;12.25;6.13;;;12.80;99.90;;;;;;4912904;29;20257;-83
2023/05/31 00:42:34;;;;;;;7.47;5.78;;;12.70;99.90;;;;;;4917527;29;20264;-86
2023/05/31 00:45:05;;;;;;;7.35;5.32;;;12.70;99.90;;;;;;4921656;29;20187;-85
2023/05/31 00:47:35;;;;;;;9.45;6.20;;;12.60;99.90;;;;;;4914015;29;20200;-87
2023/05/31 00:50:02;;;;;;;9.15;5.95;;;13.10;99.90;;;;;;4919168;29;20213;-89
2023/05/31 00:52:31;;;;;;;9.93;6.10;;;12.60;99.90;;;;;;4896267;29;20281;-85
2023/05/31 00:55:00;;;;;;;8.95;6.78;;;13.30;99.90;;;;;;4906108;29;20245;-85
2023/05/31 00:57:27;;;;;;;8.60;6.05;;;13.10;99.90;;;;;;4899090;29;20299;-87
2023/05/31 00:59:54;;;;;;;9.30;5.65;;;12.60;99.90;;;;;;4906115;29;20205;-90
2023/05/31 01:02:22;;;;;;;10.55;4.85;;;12.60;99.90;;;;;;4905370;29;20220;-89
2023/05/31 01:04:50;;;;;;;7.97;5.00;;;13.00;99.90;;;;;;4890994;29;20280;-88
2023/05/31 01:07:17;;;;;;;9.10;6.80;;;12.50;99.90;;;;;;4912583;29;20209;-86
2023/05/31 01:09:44;;;;;;;8.55;5.53;;;12.30;99.90;;;;;;4896879;29;20268;-86
2023/05/31 01:12:29;;;;;;;7.57;5.30;;;12.70;99.90;;;;;;4890205;29;20240;-86
2023/05/31 01:14:58;;;;;;;7.75;4.97;;;12.40;99.90;;;;;;4905438;29;20240;-86
2023/05/31 01:17:59;;;;;;;12.32;5.65;;;12.40;99.90;;;;;;4905626;29;20336;-87
2023/05/31 01:20:34;;;;;;;10.40;6.05;;;12.20;99.90;;;;;;4898068;29;20312;-87
2023/05/31 01:23:39;;;;;;;13.73;6.18;;;12.10;99.90;;;;;;4899933;29;20205;-88
2023/05/31 01:26:20;;;;;;;9.23;6.45;;;12.10;99.90;;;;;;4916806;29;20408;-87
2023/05/31 01:28:55;;;;;;;9.95;6.07;;;12.00;99.90;;;;;;4901981;29;20217;-89
2023/05/31 01:31:23;;;;;;;7.47;5.30;;;11.80;99.90;;;;;;4898917;29;20216;-88
2023/05/31 01:33:50;;;;;;;8.02;6.15;;;12.20;99.90;;;;;;4904882;29;20209;-86
2023/05/31 01:36:17;;;;;;;12.40;6.85;;;12.20;99.90;;;;;;4902631;29;20257;-89
2023/05/31 01:38:45;;;;;;;12.77;6.10;;;12.20;99.90;;;;;;4925695;29;20284;-89
2023/05/31 01:41:13;;;;;;;6.25;5.53;;;12.10;99.90;;;;;;4915872;29;20233;-87
2023/05/31 01:43:43;;;;;;;12.23;7.13;;;12.10;99.90;;;;;;4903929;29;20242;-87
2023/05/31 01:46:12;;;;;;;7.68;5.20;;;13.10;99.90;;;;;;4916982;29;20536;-82
2023/05/31 01:48:41;;;;;;;6.97;5.85;;;12.00;99.90;;;;;;4911999;29;20201;-84
2023/05/31 01:51:11;;;;;;;13.18;5.78;;;12.20;99.90;;;;;;4898340;29;20294;-84
2023/05/31 01:53:38;;;;;;;7.00;4.72;;;12.10;99.90;;;;;;4903687;29;20219;-83
2023/05/31 01:56:07;;;;;;;11.88;7.00;;;12.00;99.90;;;;;;4894568;29;20217;-86
2023/05/31 01:58:49;;;;;;;7.75;5.63;;;11.40;99.90;;;;;;4893004;29;20221;-84
2023/05/31 02:01:17;;;;;;;12.90;6.20;;;12.00;99.90;;;;;;4918316;29;20256;-83
2023/05/31 02:03:45;;;;;;;11.98;7.15;;;12.00;99.90;;;;;;4915275;29;20193;-82
2023/05/31 02:06:12;;;;;;;8.35;5.55;;;12.00;99.90;;;;;;4924724;29;20220;-82
2023/05/31 02:08:43;;;;;;;7.03;5.30;;;12.00;99.90;;;;;;4917149;29;20215;-84
2023/05/31 02:11:11;;;;;;;12.02;6.85;;;12.00;99.90;;;;;;4924014;29;20201;-85
2023/05/31 02:13:38;;;;;;;9.40;6.65;;;12.00;99.90;;;;;;4908851;29;20205;-84
2023/05/31 02:16:05;;;;;;;7.35;5.45;;;12.00;99.90;;;;;;4919288;29;20209;-85
2023/05/31 02:18:32;;;;;;;10.48;5.70;;;11.90;99.90;;;;;;4914618;29;20236;-83
2023/05/31 02:21:01;;;;;;;9.52;4.15;;;11.80;99.90;;;;;;4912311;29;20229;-87
2023/05/31 02:23:29;;;;;;;7.60;5.18;;;11.90;99.90;;;;;;4908122;29;20216;-85
2023/05/31 02:25:58;;;;;;;5.80;4.22;;;12.00;99.90;;;;;;4906201;29;20213;-86
2023/05/31 02:28:25;;;;;;;9.40;4.63;;;11.80;99.90;;;;;;4905706;29;20552;-86
2023/05/31 02:30:58;;;;;;;7.45;4.38;;;11.90;99.90;;;;;;4916052;29;20216;-85
2023/05/31 02:33:26;;;;;;;9.05;3.83;;;12.00;99.90;;;;;;4912259;29;20209;-84
2023/05/31 02:35:56;;;;;;;9.43;3.78;;;12.00;99.90;;;;;;4905449;29;20253;-82
2023/05/31 02:38:24;;;;;;;4.38;3.35;;;12.10;99.90;;;;;;4910589;29;20241;-83
2023/05/31 02:40:51;;;;;;;6.38;3.83;;;12.20;99.90;;;;;;4911653;29;20237;-83
2023/05/31 02:43:18;;;;;;;11.32;4.00;;;12.30;99.90;;;;;;4901926;29;20232;-85
2023/05/31 02:45:45;;;;;;;9.23;3.35;;;12.30;99.90;;;;;;4910885;29;20237;-86
2023/05/31 02:48:12;;;;;;;7.18;3.88;;;12.50;99.90;;;;;;4905322;29;20491;-84
2023/05/31 02:50:40;;;;;;;7.18;4.68;;;12.60;99.90;;;;;;4900018;29;20209;-84
2023/05/31 02:53:06;;;;;;;5.00;4.50;;;12.50;99.90;;;;;;4897881;29;20434;-82
2023/05/31 02:55:34;;;;;;;11.00;5.15;;;12.80;99.90;;;;;;4920789;29;20201;-86
2023/05/31 02:58:01;;;;;;;10.50;4.50;;;12.30;99.90;;;;;;4915150;29;20249;-84
2023/05/31 03:00:28;;;;;;;11.10;4.75;;;12.30;99.90;;;;;;4895344;29;20206;-86
2023/05/31 03:02:56;;;;;;;8.15;4.40;;;12.40;99.90;;;;;;4905098;29;20213;-85
2023/05/31 03:05:23;;;;;;;8.32;5.38;;;12.20;99.90;;;;;;4892377;29;20220;-85
2023/05/31 03:07:50;;;;;;;6.45;4.82;;;12.10;99.90;;;;;;4903921;29;20206;-84
2023/05/31 03:10:17;;;;;;;10.63;5.28;;;11.90;99.90;;;;;;4928752;29;20214;-84
2023/05/31 03:12:44;;;;;;;18.90;4.82;;;11.90;99.90;;;;;;4895095;29;20209;-85
2023/05/31 03:15:11;;;;;;;7.57;4.15;;;11.90;99.90;;;;;;4907058;29;20261;-87
2023/05/31 03:17:39;;;;;;;8.23;4.15;;;11.80;99.90;;;;;;4900698;29;20721;-85
2023/05/31 03:20:10;;;;;;;11.18;5.60;;;11.70;99.90;;;;;;4901030;29;20212;-86
2023/05/31 03:22:37;;;;;;;10.05;6.70;;;11.90;99.90;;;;;;4893129;29;20242;-86
2023/05/31 03:25:05;;;;;;;6.43;5.65;;;11.80;99.90;;;;;;4905280;29;20220;-85
2023/05/31 03:27:32;;;;;;;11.98;5.97;;;11.90;99.90;;;;;;4900732;29;20223;-84
2023/05/31 03:30:00;;;;;;;11.00;5.95;;;12.30;99.90;;;;;;4898710;29;20209;-85
2023/05/31 03:32:28;;;;;;;7.85;5.53;;;13.30;99.90;;;;;;4899958;29;20260;-84
2023/05/31 03:34:55;;;;;;;13.88;5.90;;;13.60;99.90;;;;;;4910699;29;20214;-85
2023/05/31 03:37:21;;;;;;;14.15;7.30;;;13.80;99.90;;;;;;4898230;29;20209;-85
2023/05/31 03:39:49;;;;;;;9.95;5.22;;;14.20;99.90;;;;;;4906676;29;20240;-86
2023/05/31 03:42:16;;;;;;;13.38;4.93;;;14.10;99.90;;;;;;4918499;29;20233;-85
2023/05/31 03:44:43;;;;;;;7.63;5.22;;;14.10;99.90;;;;;;4903965;29;20217;-84
2023/05/31 03:47:11;;;;;;;11.80;5.97;;;15.00;99.90;;;;;;4906514;29;20657;-84
2023/05/31 03:49:37;;;;;;;9.73;5.50;;;14.40;99.90;;;;;;4905026;29;20461;-84
2023/05/31 03:52:04;;;;;;;11.57;5.25;;;14.10;99.90;;;;;;4901586;29;20207;-87
2023/05/31 03:54:32;;;;;;;10.38;4.63;;;14.00;99.90;;;;;;4905258;29;20209;-84
2023/05/31 03:56:58;;;;;;;11.82;5.18;;;14.10;99.90;;;;;;4898842;29;20227;-80
2023/05/31 03:59:26;;;;;;;6.40;4.78;;;14.40;99.90;;;;;;4902054;29;20292;-84
2023/05/31 04:01:52;;;;;;;11.93;6.38;;;14.40;99.90;;;;;;4900554;29;20553;-82
2023/05/31 04:04:20;;;;;;;8.87;5.67;;;14.60;99.90;;;;;;4908852;29;20235;-84
2023/05/31 04:06:47;;;;;;;10.50;5.85;;;14.60;99.90;;;;;;4899621;29;20480;-83
2023/05/31 04:09:14;;;;;;;14.37;6.13;;;14.70;99.90;;;;;;4903536;29;20461;-83
2023/05/31 04:11:41;;;;;;;7.55;4.95;;;14.60;99.90;;;;;;4903284;29;20678;-83
2023/05/31 04:14:07;;;;;;;9.25;4.45;;;14.40;99.90;;;;;;4900441;29;20261;-80
2023/05/31 04:16:34;;;;;;;9.98;5.18;;;14.40;99.90;;;;;;4894985;29;20209;-82
2023/05/31 04:19:02;;;;;;;23.20;6.03;;;14.10;99.90;;;;;;4894914;29;20301;-82
2023/05/31 04:21:29;;;;;;;9.00;4.70;;;14.00;99.90;;;;;;4894110;29;20244;-81
2023/05/31 04:23:56;;;;;;;15.43;5.90;;;13.90;99.90;;;;;;4896203;29;20210;-81
2023/05/31 04:26:23;;;;;;;11.48;6.43;;;13.90;99.90;;;;;;4913273;29;20443;-83
2023/05/31 04:28:53;;;;;;;9.30;5.40;;;14.00;99.90;;;;;;4899475;29;20220;-81
2023/05/31 04:31:24;;;;;;;16.95;6.20;;;14.00;99.90;;;;;;4904086;29;20502;-84
2023/05/31 04:34:04;;;;;;;8.70;5.13;;;14.10;99.90;;;;;;4890803;29;20286;-82
2023/05/31 04:36:35;;;;;;;11.43;6.10;;;14.20;99.90;;;;;;4889565;29;20216;-83
2023/05/31 04:39:03;;;;;;;9.23;5.63;;;14.40;99.90;;;;;;4894633;29;20308;-83
2023/05/31 04:41:30;;;;;;;14.23;6.10;;;14.40;99.90;;;;;;4894464;29;20737;-83
2023/05/31 04:43:57;;;;;;;19.43;6.50;;;14.50;99.90;;;;;;4897552;29;20809;-81
2023/05/31 04:46:24;;;;;;;15.33;6.17;;;14.70;99.90;;;;;;4893755;29;20464;-83
2023/05/31 04:48:51;;;;;;;13.40;6.43;;;14.70;99.90;;;;;;4887342;29;20453;-82
2023/05/31 04:51:19;;;;;;;9.80;5.83;;;14.80;99.90;;;;;;4887282;29;20713;-83
2023/05/31 04:53:47;;;;;;;14.27;6.23;;;14.90;99.90;;;;;;4901392;29;20449;-80
2023/05/31 04:56:14;;;;;;;17.83;6.10;;;15.00;99.90;;;;;;4895346;29;20437;-82
2023/05/31 04:58:41;;;;;;;25.40;8.50;;;15.20;99.90;;;;;;4903930;29;20465;-82
2023/05/31 05:01:09;;;;;;;25.07;8.40;;;15.30;99.90;;;;;;4898721;29;20455;-81
2023/05/31 05:03:36;;;;;;;20.10;11.23;;;15.40;99.90;;;;;;4897454;29;20431;-82
2023/05/31 05:06:13;;;;;;;17.17;8.33;;;15.70;99.90;;;;;;4902375;29;20540;-82
2023/05/31 05:08:40;;;;;;;20.77;9.27;;;15.80;99.90;;;;;;4887614;29;20424;-80
2023/05/31 05:11:07;;;;;;;22.00;9.80;;;16.00;99.90;;;;;;4899000;29;21011;-81
2023/05/31 05:13:35;;;;;;;10.33;7.50;;;16.00;99.90;;;;;;4891515;29;20447;-82
2023/05/31 05:16:02;;;;;;;11.67;7.77;;;16.10;99.90;;;;;;4893714;29;20479;-79
2023/05/31 05:18:30;;;;;;;12.53;6.93;;;16.10;99.90;;;;;;4896871;29;20499;-81
2023/05/31 05:20:59;;;;;;;8.40;4.50;;;16.30;99.90;;;;;;4894217;29;20461;-82
2023/05/31 05:23:26;;;;;;;7.90;4.47;;;16.30;99.90;;;;;;4899787;29;20435;-81
2023/05/31 05:25:53;;;;;;;4.23;2.70;;;16.30;99.90;;;;;;4901926;29;20906;-85
2023/05/31 05:28:22;;;;;;;9.80;3.67;;;16.50;99.90;;;;;;4898305;29;20481;-80
2023/05/31 05:30:50;;;;;;;6.83;3.33;;;16.60;99.90;;;;;;4893308;29;20477;-81
2023/05/31 05:33:17;;;;;;;4.47;4.17;;;16.70;99.90;;;;;;4895391;29;20498;-81
2023/05/31 05:35:44;;;;;;;5.30;3.60;;;16.80;99.90;;;;;;4901100;29;20475;-80
2023/05/31 05:38:11;;;;;;;4.87;3.70;;;16.90;99.90;;;;;;4900490;29;20434;-79
2023/05/31 05:40:38;;;;;;;9.93;3.70;;;17.00;99.90;;;;;;4896158;29;20494;-85
2023/05/31 05:43:05;;;;;;;5.50;3.50;;;17.20;99.90;;;;;;4890926;29;20739;-80
2023/05/31 05:45:32;;;;;;;8.60;3.80;;;17.20;99.90;;;;;;4904664;29;20459;-79
2023/05/31 05:47:59;;;;;;;4.10;3.67;;;17.50;99.90;;;;;;4904636;29;20456;-79
2023/05/31 05:50:26;;;;;;;9.57;6.10;;;17.50;99.90;;;;;;4923213;29;20459;-80
2023/05/31 05:52:53;;;;;;;5.73;3.50;;;17.60;99.90;;;;;;4919039;29;20433;-81
2023/05/31 05:55:20;;;;;;;4.90;3.07;;;17.70;99.90;;;;;;4913221;29;20463;-83
2023/05/31 05:57:47;;;;;;;10.10;4.07;;;17.80;99.90;;;;;;4891785;29;20491;-80
2023/05/31 06:00:15;;;;;;;6.20;3.90;;;17.60;99.90;;;;;;4894434;29;20492;-81
2023/05/31 06:02:43;;;;;;;7.13;4.23;;;17.70;99.90;;;;;;4903587;29;20418;-81
2023/05/31 06:05:10;;;;;;;7.80;3.57;;;17.90;99.90;;;;;;4908935;29;20653;-80
2023/05/31 06:07:37;;;;;;;10.33;5.07;;;18.10;99.90;;;;;;4899836;29;20423;-81
2023/05/31 06:10:05;;;;;;;5.80;3.77;;;18.50;99.90;;;;;;4903936;29;20452;-81
2023/05/31 06:12:32;;;;;;;4.93;4.40;;;18.60;99.90;;;;;;4921426;29;20801;-78
2023/05/31 06:14:59;;;;;;;7.53;3.70;;;18.70;99.90;;;;;;4903942;29;20419;-79
2023/05/31 06:17:26;;;;;;;4.93;4.47;;;19.10;99.90;;;;;;4903521;29;20431;-82
2023/05/31 06:19:53;;;;;;;7.17;3.70;;;19.40;99.90;;;;;;4899789;29;20490;-79
2023/05/31 06:22:20;;;;;;;6.97;3.87;;;19.60;99.90;;;;;;4906972;29;20434;-79
2023/05/31 06:24:47;;;;;;;3.83;3.17;;;19.50;99.90;;;;;;4901817;29;20461;-83
2023/05/31 06:27:14;;;;;;;5.57;3.27;;;19.60;99.90;;;;;;4900459;29;20459;-80
2023/05/31 06:29:41;;;;;;;4.27;2.70;;;19.60;99.90;;;;;;4901488;29;20458;-82
2023/05/31 06:32:08;;;;;;;4.60;2.77;;;19.80;99.90;;;;;;4903832;29;20452;-79
2023/05/31 06:34:35;;;;;;;7.07;3.00;;;20.00;99.90;;;;;;4896315;29;20460;-81
2023/05/31 06:37:02;;;;;;;7.30;3.63;;;20.30;99.90;;;;;;4902642;29;20522;-79
2023/05/31 06:39:30;;;;;;;6.37;3.13;;;20.50;99.90;;;;;;4897337;29;20484;-81
2023/05/31 06:41:59;;;;;;;5.87;3.30;;;20.70;99.90;;;;;;4891895;29;20465;-82
2023/05/31 06:44:27;;;;;;;7.97;3.90;;;20.60;99.90;;;;;;4896937;29;20452;-82
2023/05/31 06:46:54;;;;;;;3.00;2.80;;;20.80;99.90;;;;;;4903240;29;20422;-82
2023/05/31 06:49:21;;;;;;;5.40;3.20;;;20.90;99.90;;;;;;4896905;29;20498;-78
2023/05/31 06:51:48;;;;;;;3.77;3.23;;;21.20;99.90;;;;;;4893133;29;20420;-79
2023/05/31 06:54:15;;;;;;;13.50;4.20;;;21.30;99.90;;;;;;4895261;29;20502;-79
2023/05/31 06:56:42;;;;;;;4.03;3.23;;;21.90;99.90;;;;;;4889648;29;20543;-79
2023/05/31 06:59:09;;;;;;;6.43;3.63;;;23.40;99.90;;;;;;4902034;29;20483;-81
2023/05/31 07:01:36;;;;;;;9.57;3.70;;;24.80;99.90;;;;;;4897884;29;20448;-84
2023/05/31 07:04:03;;;;;;;5.93;4.30;;;25.10;98.00;;;;;;4894073;29;20460;-84
2023/05/31 07:06:31;;;;;;;5.67;4.17;;;26.20;93.80;;;;;;4888731;29;20473;-81
2023/05/31 07:08:58;;;;;;;5.30;3.80;;;27.80;86.20;;;;;;4891507;29;20661;-80
2023/05/31 07:11:25;;;;;;;6.47;3.03;;;29.10;80.10;;;;;;4896380;29;20497;-82
2023/05/31 07:13:52;;;;;;;6.87;4.50;;;30.20;69.10;;;;;;4896985;29;20444;-80
2023/05/31 07:16:19;;;;;;;4.57;3.30;;;30.70;65.10;;;;;;4903250;29;20686;-84
2023/05/31 07:18:47;;;;;;;4.50;3.40;;;31.60;59.60;;;;;;4899958;29;20456;-78
2023/05/31 07:21:14;;;;;;;3.90;3.50;;;33.00;56.40;;;;;;4891155;29;20452;-79
2023/05/31 07:23:41;;;;;;;6.30;2.97;;;34.70;53.70;;;;;;4887871;29;20682;-82
2023/05/31 07:26:07;;;;;;;6.13;4.43;;;35.70;48.70;;;;;;4895308;29;20539;-80
2023/05/31 07:28:34;;;;;;;3.53;2.63;;;35.50;46.00;;;;;;4895109;29;20452;-83
2023/05/31 07:31:02;;;;;;;3.87;3.03;;;36.40;43.30;;;;;;4899715;29;20461;-83
2023/05/31 07:33:29;;;;;;;3.30;2.90;;;37.50;40.70;;;;;;4900624;29;20518;-81
2023/05/31 07:36:00;;;;;;;13.63;6.30;;;37.90;39.60;;;;;;4895608;29;20456;-82
2023/05/31 07:38:27;;;;;;;6.03;2.87;;;37.50;39.60;;;;;;4905951;29;20824;-82
2023/05/31 07:40:54;;;;;;;4.80;2.63;;;35.90;41.10;;;;;;4901742;29;20886;-82
2023/05/31 07:43:23;;;;;;;5.27;2.60;;;36.10;41.20;;;;;;4911687;29;20459;-79
2023/05/31 07:45:50;;;;;;;4.40;2.83;;;36.80;40.50;;;;;;4899878;29;20527;-80
2023/05/31 07:48:18;;;;;;;4.83;2.87;;;38.30;39.20;;;;;;4896925;29;20787;-83
2023/05/31 07:50:46;;;;;;;3.97;2.67;;;39.00;38.00;;;;;;4902000;29;20452;-79
2023/05/31 07:53:13;;;;;;;7.47;3.07;;;38.70;38.10;;;;;;4895714;29;20556;-80
2023/05/31 07:55:41;;;;;;;6.30;3.90;;;38.00;39.00;;;;;;4893123;29;20464;-82
2023/05/31 07:58:10;;;;;;;3.30;2.97;;;39.00;38.40;;;;;;4895475;29;20550;-81
2023/05/31 08:00:40;;;;;;;5.20;3.17;;;38.00;38.50;;;;;;4896790;29;20483;-84
2023/05/31 08:03:08;;;;;;;4.43;3.17;;;38.90;38.70;;;;;;4899627;29;20448;-83
2023/05/31 08:05:35;;;;;;;3.80;2.53;;;37.80;37.40;;;;;;4908314;29;20478;-81
2023/05/31 08:08:02;;;;;;;4.30;3.37;;;38.10;37.80;;;;;;4915521;29;20492;-80
2023/05/31 08:10:29;;;;;;;4.10;3.20;;;37.50;38.00;;;;;;4917431;29;20447;-84
2023/05/31 08:12:56;;;;;;;2.83;2.33;;;36.40;38.40;;;;;;4918370;29;20446;-83
2023/05/31 08:15:23;;;;;;;5.83;2.97;;;37.10;38.50;;;;;;4916943;29;20598;-80
2023/05/31 08:17:51;;;;;;;3.70;3.23;;;38.80;37.20;;;;;;4907918;29;20444;-83
2023/05/31 08:20:18;;;;;;;3.00;2.67;;;39.70;36.50;;;;;;4897068;29;20533;-84
2023/05/31 08:22:45;;;;;;;7.03;3.97;;;39.10;36.60;;;;;;4902849;29;20444;-84
2023/05/31 08:25:14;;;;;;;5.43;3.40;;;39.30;37.40;;;;;;4903193;29;20535;-84
2023/05/31 08:27:41;;;;;;;7.80;3.43;;;39.30;36.80;;;;;;4901275;29;20535;-84
2023/05/31 08:30:12;;;;;;;12.43;2.80;;;41.10;35.10;;;;;;4902136;29;20519;-81
2023/05/31 08:32:43;;;;;;;2.90;2.60;;;40.10;34.10;;;;;;4893025;29;20455;-81
2023/05/31 08:35:10;;;;;;;2.93;2.60;;;40.60;34.30;;;;;;4899884;29;20536;-81
2023/05/31 08:37:37;;;;;;;4.60;2.90;;;41.30;33.00;;;;;;4889351;29;20448;-81
2023/05/31 08:40:06;;;;;;;5.63;2.67;;;40.90;33.80;;;;;;4897073;29;20500;-83
2023/05/31 08:42:59;;;;;;;7.90;2.37;;;41.70;33.60;;;;;;4894878;29;20471;-81
2023/05/31 08:45:28;;;;;;;4.57;3.23;;;39.00;34.20;;;;;;4891364;29;21017;-82
2023/05/31 08:48:00;;;;;;;3.53;3.20;;;38.90;35.40;;;;;;4895700;29;20460;-79
2023/05/31 08:50:29;;;;;;;4.03;2.60;;;38.50;35.80;;;;;;4898524;29;20445;-81
2023/05/31 08:52:57;;;;;;;3.50;2.40;;;39.10;33.80;;;;;;4918217;29;20452;-84
2023/05/31 08:55:24;;;;;;;3.93;2.90;;;36.00;36.10;;;;;;4898223;29;20452;-85
2023/05/31 08:57:52;;;;;;;8.57;3.50;;;35.10;37.80;;;;;;4895765;29;20767;-85
2023/05/31 09:00:20;;;;;;;4.43;2.70;;;36.40;36.30;;;;;;4920627;29;20806;-83
2023/05/31 09:02:48;;;;;;;4.30;2.50;;;36.00;35.70;;;;;;4900119;29;20669;-82
2023/05/31 09:05:15;;;;;;;3.10;2.80;;;35.50;37.20;;;;;;4899458;29;20452;-82
2023/05/31 09:07:42;;;;;;;9.77;3.30;;;36.30;37.00;;;;;;4898471;29;20448;-81
2023/05/31 09:10:10;;;;;;;3.13;2.10;;;38.10;35.30;;;;;;4897692;29;20973;-84
2023/05/31 09:12:42;;;;;;;4.27;3.10;;;37.00;35.30;;;;;;4895704;29;20459;-82
2023/05/31 09:15:14;;;;;;;8.13;3.83;;;34.30;37.30;;;;;;4895854;29;20456;-84
2023/05/31 09:17:45;;;;;;;8.23;3.20;;;33.50;39.30;;;;;;4899668;29;20771;-82
2023/05/31 09:20:12;;;;;;;9.60;2.70;;;34.50;38.70;;;;;;4891260;29;20737;-81
2023/05/31 09:22:40;;;;;;;4.20;2.40;;;35.80;36.40;;;;;;4902112;29;20448;-83
2023/05/31 09:25:07;;;;;;;2.30;2.10;;;34.70;36.30;;;;;;4899063;29;20477;-84
2023/05/31 09:27:36;;;;;;;8.40;3.10;;;33.20;37.80;;;;;;4899406;29;20478;-83
2023/05/31 09:30:13;;;;;;;2.70;2.13;;;32.30;38.90;;;;;;4894311;29;20495;-82
2023/05/31 09:32:53;;;;;;;3.10;2.77;;;31.30;40.80;;;;;;4893337;29;20479;-82
2023/05/31 09:35:24;;;;;;;3.47;2.50;;;30.40;42.00;;;;;;4906594;29;20428;-81
2023/05/31 09:37:52;;;;;;;4.93;2.60;;;29.10;43.60;;;;;;4911619;29;20628;-84
2023/05/31 09:40:25;;;;;;;3.37;2.60;;;28.30;44.40;;;;;;4908758;29;20476;-85
2023/05/31 09:42:53;;;;;;;3.63;2.73;;;27.30;46.60;;;;;;4901935;29;20790;-85
2023/05/31 09:45:21;;;;;;;2.80;2.13;;;26.70;47.20;;;;;;4908755;29;20467;-88
2023/05/31 09:47:49;;;;;;;3.60;2.33;;;26.30;48.60;;;;;;4890833;29;20543;-83
2023/05/31 09:50:21;;;;;;;3.83;2.80;;;26.10;49.50;;;;;;4892070;29;20543;-83
2023/05/31 09:52:55;;;;;;;6.37;2.23;;;26.00;49.80;;;;;;4904400;29;20487;-82
2023/05/31 09:55:22;;;;;;;4.03;2.70;;;25.80;50.40;;;;;;4896556;29;20784;-83
2023/05/31 09:57:52;;;;;;;3.03;2.70;;;25.20;52.50;;;;;;4901644;29;20495;-85
2023/05/31 10:00:22;;;;;;;5.30;4.00;;;25.00;52.50;;;;;;4894283;29;20471;-86
2023/05/31 10:02:51;;;;;;;6.20;2.57;;;24.20;52.80;;;;;;4898633;29;20443;-81
2023/05/31 10:05:21;;;;;;;4.93;3.47;;;24.10;55.00;;;;;;4901678;29;20483;-85
2023/05/31 10:07:52;;;;;;;3.77;3.03;;;24.30;54.30;;;;;;4897579;29;20463;-81
2023/05/31 10:10:21;;;;;;;6.47;3.37;;;24.50;54.30;;;;;;4914567;29;20963;-85
2023/05/31 10:12:57;;;;;;;4.10;3.63;;;24.70;53.60;;;;;;4895478;29;20823;-82
2023/05/31 10:15:27;;;;;;;2.20;2.00;;;24.80;53.60;;;;;;4900569;29;20457;-82
2023/05/31 10:18:09;;;;;;;7.30;3.70;;;24.70;52.60;;;;;;4891459;29;21155;-89
2023/05/31 10:20:50;;;;;;;3.43;2.73;;;24.40;53.40;;;;;;4897958;29;20483;-82
2023/05/31 10:23:20;;;;;;;6.70;2.40;;;24.20;54.50;;;;;;4897487;29;20473;-86
2023/05/31 10:26:14;;;;;;;4.87;2.87;;;23.70;55.30;;;;;;4897680;29;20460;-85
2023/05/31 10:29:08;;;;;;;1.70;1.60;;;23.70;54.20;;;;;;4903231;29;20448;-83
2023/05/31 10:31:48;;;;;;;4.87;2.27;;;23.80;54.90;;;;;;4914307;29;20467;-85
2023/05/31 10:34:20;;;;;;;4.50;2.80;;;24.10;54.80;;;;;;4902850;29;20535;-84
2023/05/31 10:36:52;;;;;;;3.63;2.20;;;23.90;54.00;;;;;;4898845;29;20445;-82
2023/05/31 10:39:46;;;;;;;3.30;2.13;;;24.00;54.20;;;;;;4894280;29;20457;-83
2023/05/31 10:43:04;;;;;;;4.40;2.87;;;23.90;55.00;;;;;;4899878;29;20457;-84
2023/05/31 10:46:00;;;;;;;6.13;2.60;;;24.00;55.80;;;;;;4890330;29;20447;-86
2023/05/31 10:48:42;;;;;;;3.53;2.60;;;24.30;56.60;;;;;;4914931;29;20771;-81
2023/05/31 10:51:11;;;;;;;3.60;3.30;;;24.10;55.40;;;;;;4905284;29;20691;-87
2023/05/31 10:53:45;;;;;;;2.73;2.10;;;23.80;56.10;;;;;;4904027;29;20460;-87
2023/05/31 10:56:14;;;;;;;6.43;2.30;;;23.70;55.90;;;;;;4894486;29;20434;-84
2023/05/31 10:58:46;;;;;;;2.77;2.23;;;23.60;56.50;;;;;;4893484;29;20936;-83
2023/05/31 11:01:21;;;;;;;3.13;2.83;;;23.60;57.40;;;;;;4888828;29;20688;-87
2023/05/31 11:03:53;;;;;;;3.30;2.33;;;23.80;56.60;;;;;;4900838;29;20422;-85
2023/05/31 11:06:25;;;;;;;6.87;2.53;;;24.00;56.20;;;;;;4894628;29;20467;-87
2023/05/31 11:09:09;;;;;;;3.00;2.70;;;24.20;54.30;;;;;;4892185;29;20448;-86
2023/05/31 11:11:37;;;;;;;6.50;3.30;;;24.00;54.10;;;;;;4907087;29;20450;-83
2023/05/31 11:14:26;;;;;;;2.50;2.30;;;23.60;54.40;;;;;;4900239;29;20458;-85
2023/05/31 11:17:03;;;;;;;2.50;2.10;;;23.60;56.30;;;;;;4898081;29;20460;-83
2023/05/31 11:19:32;;;;;;;3.27;2.10;;;23.70;56.80;;;;;;4900464;29;20462;-85
2023/05/31 11:22:18;;;;;;;4.33;2.13;;;23.90;57.20;;;;;;4897691;29;20520;-81
2023/05/31 11:24:50;;;;;;;3.13;2.00;;;24.00;56.00;;;;;;4898371;29;20440;-82
2023/05/31 11:27:22;;;;;;;1.77;1.63;;;24.10;55.50;;;;;;4900839;29;20448;-84
2023/05/31 11:29:51;;;;;;;5.30;2.90;;;24.10;56.40;;;;;;4903906;29;20436;-84
2023/05/31 11:32:34;;;;;;;3.93;2.90;;;24.10;55.40;;;;;;4900379;29;20623;-83
2023/05/31 11:35:04;;;;;;;5.80;3.97;;;23.90;56.30;;;;;;4889684;29;20671;-87
2023/05/31 11:37:36;;;;;;;3.20;2.23;;;23.80;57.80;;;;;;4888764;29;20788;-83
2023/05/31 11:40:08;;;;;;;2.90;1.83;;;23.80;58.00;;;;;;4902053;29;20446;-80
2023/05/31 11:42:37;;;;;;;4.67;2.57;;;23.90;59.30;;;;;;4895075;29;20439;-81
2023/05/31 11:45:10;;;;;;;3.30;2.30;;;24.00;58.60;;;;;;4893819;29;20426;-85
2023/05/31 11:47:54;;;;;;;9.33;1.87;;;24.00;59.20;;;;;;4894467;29;20454;-80
2023/05/31 11:50:24;;;;;;;5.23;3.30;;;24.20;61.40;;;;;;4902634;29;20441;-80
2023/05/31 11:52:54;;;;;;;3.90;2.33;;;24.30;61.90;;;;;;4901530;29;20414;-81
2023/05/31 11:55:22;;;;;;;3.20;2.90;;;24.40;63.20;;;;;;4893545;29;20427;-85
2023/05/31 11:57:53;;;;;;;3.47;2.50;;;24.70;62.90;;;;;;4902682;29;20553;-81
2023/05/31 12:00:21;;;;;;;4.47;3.17;;;24.80;60.00;;;;;;4899094;29;20573;-83
2023/05/31 12:02:59;;;;;;;5.33;2.80;;;24.90;60.80;;;;;;4898223;29;20430;-81
2023/05/31 12:05:27;;;;;;;3.63;2.50;;;24.80;61.50;;;;;;4892890;29;20786;-83
2023/05/31 12:07:55;;;;;;;4.47;2.93;;;24.90;61.80;;;;;;4898334;29;20597;-83
2023/05/31 12:10:32;;;;;;;3.57;2.23;;;25.00;61.40;;;;;;4901840;29;20470;-84
2023/05/31 12:12:58;;;;;;;3.60;2.60;;;25.20;61.50;;;;;;4908144;29;20451;-82
2023/05/31 12:15:30;;;;;;;6.90;2.90;;;25.20;60.20;;;;;;4902063;29;20486;-82
2023/05/31 12:18:01;;;;;;;3.90;2.50;;;25.20;59.60;;;;;;4902495;29;20865;-82
2023/05/31 12:20:31;;;;;;;4.37;2.10;;;25.10;59.10;;;;;;4899565;29;20487;-89
2023/05/31 12:23:14;;;;;;;3.87;2.10;;;25.00;59.90;;;;;;4897102;29;20487;-85
2023/05/31 12:25:49;;;;;;;2.80;2.50;;;24.80;59.30;;;;;;4907822;29;20462;-81
2023/05/31 12:28:17;;;;;;;3.43;2.20;;;24.60;60.40;;;;;;4908042;29;20525;-80
2023/05/31 12:30:51;;;;;;;6.30;2.53;;;24.40;61.20;;;;;;4903275;29;20486;-88
2023/05/31 12:33:18;;;;;;;4.00;2.43;;;24.60;62.00;;;;;;4899912;29;20531;-87
2023/05/31 12:35:46;;;;;;;2.30;2.10;;;24.80;61.60;;;;;;4894097;29;20448;-80
2023/05/31 12:38:14;;;;;;;3.53;2.80;;;24.80;60.70;;;;;;4902222;29;20472;-82
2023/05/31 12:40:42;;;;;;;7.07;2.70;;;24.80;58.70;;;;;;4906329;29;20502;-81
2023/05/31 12:43:12;;;;;;;4.27;2.30;;;24.60;58.00;;;;;;4898093;29;20630;-80
2023/05/31 12:45:40;;;;;;;3.30;1.97;;;24.70;58.60;;;;;;4906889;29;20425;-83
2023/05/31 12:48:11;;;;;;;2.23;1.93;;;24.60;58.70;;;;;;4896643;29;20479;-84
2023/05/31 12:50:46;;;;;;;2.00;1.80;;;24.40;58.90;;;;;;4901974;29;20427;-81
2023/05/31 12:53:14;;;;;;;5.17;2.70;;;24.10;58.00;;;;;;4895127;29;20424;-85
2023/05/31 12:55:42;;;;;;;4.70;2.67;;;24.00;59.30;;;;;;4903235;29;20448;-83
2023/05/31 12:58:08;;;;;;;5.30;3.20;;;23.90;59.30;;;;;;4896342;29;20434;-83